Погода Жирныйна неделю

Ростовская область, Россия

15 - 21 июля
  • 15июля
    Сегодня
    +21°
    +37°
    Ясно и безоблачно
    ВремяПогодаТемператураВлажностьДавлениеВетер, м/сВероятность осадков
    00:00Ясно и безоблачно+22°C24 %754 мм2.7 м/с2 %
    03:00Ясно и безоблачно+19°C32 %754 мм2.1 м/с2 %
    06:00Ясно и безоблачно+21°C33 %754 мм2.3 м/с2 %
    09:00Ясно и безоблачно+31°C21 %754 мм2.4 м/с2 %
    12:00Ясно и безоблачно+35°C20 %754 мм3.4 м/с2 %
    15:00Ясно и безоблачно+37°C18 %753 мм3.5 м/с2 %
    18:00Ясно и безоблачно+36°C18 %752 мм4.4 м/с2 %
    21:00Ясно и безоблачно+29°C24 %753 мм3.2 м/с2 %
  • 16июля
    Вторник
    +23°
    +39°
    Облачно с прояснениями
    ВремяПогодаТемператураВлажностьДавлениеВетер, м/сВероятность осадков
    00:00Ясно и безоблачно+26°C30 %753 мм2.9 м/с2 %
    03:00Ясно и безоблачно+24°C35 %753 мм2.4 м/с2 %
    06:00Ясно и безоблачно+24°C37 %754 мм2.6 м/с2 %
    09:00Ясно и безоблачно+34°C25 %754 мм2.1 м/с2 %
    12:00Практически безоблачно+38°C19 %754 мм3.8 м/с2 %
    15:00Облачно с прояснениями+38°C17 %753 мм3.7 м/с2 %
    18:00Небольшая облачность+37°C18 %752 мм4.8 м/с2 %
    21:00Ясно и безоблачно+31°C25 %753 мм4.0 м/с2 %
  • 17июля
    Среда
    +22°
    +38°
    Практически безоблачно
    ВремяПогодаТемператураВлажностьДавлениеВетер, м/сВероятность осадков
    00:00Ясно и безоблачно+28°C30 %754 мм3.3 м/с2 %
    03:00Ясно и безоблачно+24°C34 %754 мм2.6 м/с2 %
    06:00Ясно и безоблачно+25°C35 %754 мм2.4 м/с2 %
    09:00Ясно и безоблачно+34°C23 %755 мм1.9 м/с2 %
    12:00Практически безоблачно+38°C19 %754 мм3.6 м/с2 %
    15:00Практически безоблачно+38°C19 %754 мм2.5 м/с2 %
    18:00Ясно и безоблачно+36°C20 %754 мм4.2 м/с2 %
    21:00Ясно и безоблачно+30°C27 %754 мм2.4 м/с2 %
  • 18июля
    Четверг
    +23°
    +39°
    Небольшая облачность
    ВремяПогодаТемператураВлажностьДавлениеВетер, м/сВероятность осадков
    00:00Ясно и безоблачно+26°C35 %754 мм2.1 м/с2 %
    03:00Ясно и безоблачно+24°C39 %754 мм2.2 м/с2 %
    06:00Ясно и безоблачно+25°C42 %754 мм2.4 м/с2 %
    09:00Ясно и безоблачно+34°C28 %755 мм2.2 м/с2 %
    12:00Ясно и безоблачно+37°C22 %754 мм1.3 м/с2 %
    15:00Небольшая облачность+39°C19 %753 мм3.5 м/с2 %
    18:00Ясно и безоблачно+37°C19 %752 мм3.9 м/с2 %
    21:00Ясно и безоблачно+31°C24 %753 мм3.3 м/с2 %
  • 19июля
    Пятница
    +23°
    +41°
    Облачно с прояснениями
    ВремяПогодаТемператураВлажностьДавлениеВетер, м/сВероятность осадков
    00:00Ясно и безоблачно+27°C29 %752 мм2.0 м/с2 %
    03:00Ясно и безоблачно+25°C32 %752 мм2.3 м/с2 %
    06:00Ясно и безоблачно+26°C33 %752 мм1.9 м/с2 %
    09:00Ясно и безоблачно+35°C24 %752 мм1.2 м/с2 %
    12:00Ясно и безоблачно+39°C19 %751 мм2.1 м/с4 %
    15:00Облачно с прояснениями+38°C27 %751 мм5.2 м/с9 %
    18:00Облачно с прояснениями+36°C33 %750 мм3.9 м/с9 %
    21:00Облачно с прояснениями+29°C40 %751 мм3.4 м/с4 %
Мы используем cookies
Соглашаюсь